sensor_id;sensor_type;location;lat;lon;timestamp;pressure;altitude;pressure_sealevel;temperature;humidity
63281;BME280;49406;51.044;3.766;2023-03-04T00:00:48;102837.65;;;5.72;90.43
63281;BME280;49406;51.044;3.766;2023-03-04T00:03:22;102843.03;;;5.72;90.52
63281;BME280;49406;51.044;3.766;2023-03-04T00:05:57;102842.37;;;5.84;90.14
63281;BME280;49406;51.044;3.766;2023-03-04T00:08:32;102844.05;;;5.89;90.00
63281;BME280;49406;51.044;3.766;2023-03-04T00:11:07;102841.09;;;5.84;90.10
63281;BME280;49406;51.044;3.766;2023-03-04T00:13:41;102843.15;;;5.80;90.48
63281;BME280;49406;51.044;3.766;2023-03-04T00:16:16;102844.20;;;5.78;90.68
63281;BME280;49406;51.044;3.766;2023-03-04T00:18:51;102846.10;;;5.77;90.79
63281;BME280;49406;51.044;3.766;2023-03-04T00:21:26;102846.27;;;5.77;90.95
63281;BME280;49406;51.044;3.766;2023-03-04T00:24:00;102844.42;;;5.75;90.98
63281;BME280;49406;51.044;3.766;2023-03-04T00:26:35;102845.59;;;5.74;91.05
63281;BME280;49406;51.044;3.766;2023-03-04T00:29:10;102842.23;;;5.73;91.04
63281;BME280;49406;51.044;3.766;2023-03-04T00:31:44;102843.27;;;5.85;90.59
63281;BME280;49406;51.044;3.766;2023-03-04T00:34:19;102841.63;;;5.89;90.46
63281;BME280;49406;51.044;3.766;2023-03-04T00:36:54;102837.94;;;5.88;90.46
63281;BME280;49406;51.044;3.766;2023-03-04T00:39:33;102840.13;;;5.85;90.64
63281;BME280;49406;51.044;3.766;2023-03-04T00:42:08;102836.21;;;5.83;90.93
63281;BME280;49406;51.044;3.766;2023-03-04T00:44:42;102832.52;;;5.82;90.94
63281;BME280;49406;51.044;3.766;2023-03-04T00:47:17;102830.77;;;5.82;90.70
63281;BME280;49406;51.044;3.766;2023-03-04T00:49:52;102833.23;;;5.83;90.59
63281;BME280;49406;51.044;3.766;2023-03-04T00:52:27;102833.95;;;5.83;90.54
63281;BME280;49406;51.044;3.766;2023-03-04T00:55:02;102837.81;;;5.84;90.47
63281;BME280;49406;51.044;3.766;2023-03-04T00:57:36;102836.05;;;5.83;90.54
63281;BME280;49406;51.044;3.766;2023-03-04T01:00:13;102835.01;;;5.83;90.60
63281;BME280;49406;51.044;3.766;2023-03-04T01:02:48;102835.60;;;5.82;90.69
63281;BME280;49406;51.044;3.766;2023-03-04T01:05:23;102836.64;;;5.82;90.77
63281;BME280;49406;51.044;3.766;2023-03-04T01:07:57;102835.95;;;5.92;90.44
63281;BME280;49406;51.044;3.766;2023-03-04T01:10:32;102834.73;;;5.98;90.14
63281;BME280;49406;51.044;3.766;2023-03-04T01:13:07;102835.14;;;5.99;90.24
63281;BME280;49406;51.044;3.766;2023-03-04T01:15:42;102833.02;;;5.96;90.60
63281;BME280;49406;51.044;3.766;2023-03-04T01:18:16;102831.77;;;5.95;90.59
63281;BME280;49406;51.044;3.766;2023-03-04T01:20:51;102834.86;;;5.95;90.67
63281;BME280;49406;51.044;3.766;2023-03-04T01:23:26;102832.05;;;5.94;90.71
63281;BME280;49406;51.044;3.766;2023-03-04T01:26:01;102833.77;;;5.94;90.75
63281;BME280;49406;51.044;3.766;2023-03-04T01:28:35;102827.02;;;5.94;90.86
63281;BME280;49406;51.044;3.766;2023-03-04T01:31:10;102824.20;;;5.93;90.89
63281;BME280;49406;51.044;3.766;2023-03-04T01:33:45;102820.10;;;5.91;90.97
63281;BME280;49406;51.044;3.766;2023-03-04T01:36:19;102816.78;;;6.00;90.73
63281;BME280;49406;51.044;3.766;2023-03-04T01:38:54;102816.77;;;6.09;90.49
63281;BME280;49406;51.044;3.766;2023-03-04T01:41:29;102808.86;;;6.10;90.49
63281;BME280;49406;51.044;3.766;2023-03-04T01:44:04;102807.95;;;6.06;90.74
63281;BME280;49406;51.044;3.766;2023-03-04T01:46:42;102804.92;;;6.05;90.95
63281;BME280;49406;51.044;3.766;2023-03-04T01:49:17;102803.25;;;6.06;91.16
63281;BME280;49406;51.044;3.766;2023-03-04T01:51:53;102798.98;;;6.05;91.29
63281;BME280;49406;51.044;3.766;2023-03-04T01:54:28;102799.02;;;6.05;91.49
63281;BME280;49406;51.044;3.766;2023-03-04T01:57:08;102798.28;;;6.04;91.56
63281;BME280;49406;51.044;3.766;2023-03-04T02:00:14;102793.36;;;6.04;91.84
63281;BME280;49406;51.044;3.766;2023-03-04T02:02:54;102788.11;;;6.03;91.92
63281;BME280;49406;51.044;3.766;2023-03-04T02:05:31;102782.44;;;6.01;92.07
63281;BME280;49406;51.044;3.766;2023-03-04T02:08:06;102781.52;;;6.03;92.22
63281;BME280;49406;51.044;3.766;2023-03-04T02:10:42;102782.02;;;6.15;91.86
63281;BME280;49406;51.044;3.766;2023-03-04T02:13:18;102776.75;;;6.17;91.93
63281;BME280;49406;51.044;3.766;2023-03-04T02:15:53;102774.20;;;6.18;92.00
63281;BME280;49406;51.044;3.766;2023-03-04T02:18:27;102767.92;;;6.14;92.31
63281;BME280;49406;51.044;3.766;2023-03-04T02:21:06;102762.95;;;6.12;92.57
63281;BME280;49406;51.044;3.766;2023-03-04T02:23:48;102759.02;;;6.10;92.57
63281;BME280;49406;51.044;3.766;2023-03-04T02:26:30;102757.93;;;6.09;92.74
63281;BME280;49406;51.044;3.766;2023-03-04T02:29:05;102758.69;;;6.08;92.92
63281;BME280;49406;51.044;3.766;2023-03-04T02:31:41;102758.17;;;6.04;93.05
63281;BME280;49406;51.044;3.766;2023-03-04T02:34:19;102755.92;;;6.05;93.30
63281;BME280;49406;51.044;3.766;2023-03-04T02:36:55;102749.71;;;6.15;92.79
63281;BME280;49406;51.044;3.766;2023-03-04T02:39:32;102757.04;;;6.18;92.87
63281;BME280;49406;51.044;3.766;2023-03-04T02:42:07;102755.89;;;6.16;92.94
63281;BME280;49406;51.044;3.766;2023-03-04T02:44:44;102749.35;;;6.11;93.17
63281;BME280;49406;51.044;3.766;2023-03-04T02:47:20;102748.75;;;6.10;93.35
63281;BME280;49406;51.044;3.766;2023-03-04T02:49:55;102750.20;;;6.08;93.38
63281;BME280;49406;51.044;3.766;2023-03-04T02:52:30;102746.34;;;6.07;93.49
63281;BME280;49406;51.044;3.766;2023-03-04T02:55:05;102746.23;;;6.06;93.66
63281;BME280;49406;51.044;3.766;2023-03-04T02:57:40;102746.63;;;6.09;93.57
63281;BME280;49406;51.044;3.766;2023-03-04T03:00:16;102745.41;;;6.18;93.09
63281;BME280;49406;51.044;3.766;2023-03-04T03:02:50;102742.62;;;6.18;93.07
63281;BME280;49406;51.044;3.766;2023-03-04T03:05:26;102743.21;;;6.10;93.34
63281;BME280;49406;51.044;3.766;2023-03-04T03:08:03;102739.95;;;6.08;93.48
63281;BME280;49406;51.044;3.766;2023-03-04T03:10:38;102741.98;;;6.07;93.56
63281;BME280;49406;51.044;3.766;2023-03-04T03:13:12;102738.12;;;6.06;93.62
63281;BME280;49406;51.044;3.766;2023-03-04T03:15:45;102737.95;;;6.03;93.32
63281;BME280;49406;51.044;3.766;2023-03-04T03:18:20;102744.30;;;6.08;93.14
63281;BME280;49406;51.044;3.766;2023-03-04T03:20:55;102740.99;;;6.17;92.64
63281;BME280;49406;51.044;3.766;2023-03-04T03:23:29;102740.26;;;6.16;92.90
63281;BME280;49406;51.044;3.766;2023-03-04T03:26:05;102743.07;;;6.11;93.29
63281;BME280;49406;51.044;3.766;2023-03-04T03:28:40;102743.83;;;6.09;93.48
63281;BME280;49406;51.044;3.766;2023-03-04T03:31:15;102744.22;;;6.07;93.52
63281;BME280;49406;51.044;3.766;2023-03-04T03:33:49;102740.39;;;6.04;93.39
63281;BME280;49406;51.044;3.766;2023-03-04T03:36:24;102743.28;;;6.03;93.49
63281;BME280;49406;51.044;3.766;2023-03-04T03:38:59;102742.31;;;6.01;93.52
63281;BME280;49406;51.044;3.766;2023-03-04T03:41:34;102746.98;;;6.12;93.08
63281;BME280;49406;51.044;3.766;2023-03-04T03:44:09;102746.70;;;6.17;92.87
63281;BME280;49406;51.044;3.766;2023-03-04T03:46:44;102748.84;;;6.14;93.00
63281;BME280;49406;51.044;3.766;2023-03-04T03:49:18;102747.40;;;6.11;93.38
63281;BME280;49406;51.044;3.766;2023-03-04T03:51:54;102746.08;;;6.09;93.53
63281;BME280;49406;51.044;3.766;2023-03-04T03:54:28;102745.48;;;6.07;93.65
63281;BME280;49406;51.044;3.766;2023-03-04T03:57:03;102746.42;;;6.06;93.80
63281;BME280;49406;51.044;3.766;2023-03-04T03:59:38;102753.52;;;6.05;94.04
63281;BME280;49406;51.044;3.766;2023-03-04T04:02:13;102749.73;;;6.09;93.99
63281;BME280;49406;51.044;3.766;2023-03-04T04:04:47;102752.17;;;6.18;93.72
63281;BME280;49406;51.044;3.766;2023-03-04T04:07:22;102750.66;;;6.19;93.82
63281;BME280;49406;51.044;3.766;2023-03-04T04:09:57;102747.86;;;6.13;93.59
63281;BME280;49406;51.044;3.766;2023-03-04T04:12:32;102746.75;;;6.08;93.50
63281;BME280;49406;51.044;3.766;2023-03-04T04:15:09;102746.81;;;6.06;93.50
63281;BME280;49406;51.044;3.766;2023-03-04T04:17:44;102748.05;;;6.04;92.85
63281;BME280;49406;51.044;3.766;2023-03-04T04:20:19;102743.76;;;6.02;92.53
63281;BME280;49406;51.044;3.766;2023-03-04T04:22:53;102744.54;;;6.12;91.95
63281;BME280;49406;51.044;3.766;2023-03-04T04:25:28;102744.94;;;6.16;91.57
63281;BME280;49406;51.044;3.766;2023-03-04T04:28:03;102742.02;;;6.11;91.98
63281;BME280;49406;51.044;3.766;2023-03-04T04:30:39;102742.43;;;6.09;92.51
63281;BME280;49406;51.044;3.766;2023-03-04T04:33:14;102745.64;;;6.07;92.78
63281;BME280;49406;51.044;3.766;2023-03-04T04:35:49;102747.69;;;6.06;92.89
63281;BME280;49406;51.044;3.766;2023-03-04T04:38:23;102747.44;;;6.08;93.01
63281;BME280;49406;51.044;3.766;2023-03-04T04:40:59;102749.73;;;6.18;92.52
63281;BME280;49406;51.044;3.766;2023-03-04T04:43:34;102748.77;;;6.20;92.43
63281;BME280;49406;51.044;3.766;2023-03-04T04:46:09;102748.98;;;6.14;92.86
63281;BME280;49406;51.044;3.766;2023-03-04T04:48:44;102747.39;;;6.11;93.10
63281;BME280;49406;51.044;3.766;2023-03-04T04:51:18;102750.33;;;6.10;93.33
63281;BME280;49406;51.044;3.766;2023-03-04T04:53:53;102748.16;;;6.09;93.46
63281;BME280;49406;51.044;3.766;2023-03-04T04:56:29;102751.34;;;6.06;93.73
63281;BME280;49406;51.044;3.766;2023-03-04T04:59:05;102746.74;;;6.05;93.91
63281;BME280;49406;51.044;3.766;2023-03-04T05:01:40;102752.76;;;6.04;94.16
63281;BME280;49406;51.044;3.766;2023-03-04T05:04:15;102753.92;;;6.03;94.38
63281;BME280;49406;51.044;3.766;2023-03-04T05:06:50;102752.81;;;6.14;93.91
63281;BME280;49406;51.044;3.766;2023-03-04T05:09:24;102757.15;;;6.17;93.58
63281;BME280;49406;51.044;3.766;2023-03-04T05:11:58;102755.98;;;6.18;93.87
63281;BME280;49406;51.044;3.766;2023-03-04T05:14:33;102752.67;;;6.12;94.26
63281;BME280;49406;51.044;3.766;2023-03-04T05:17:07;102752.52;;;6.09;94.66
63281;BME280;49406;51.044;3.766;2023-03-04T05:19:42;102754.64;;;6.09;94.74
63281;BME280;49406;51.044;3.766;2023-03-04T05:22:16;102750.72;;;6.08;94.89
63281;BME280;49406;51.044;3.766;2023-03-04T05:24:51;102751.17;;;6.04;95.19
63281;BME280;49406;51.044;3.766;2023-03-04T05:27:25;102748.63;;;6.02;94.93
63281;BME280;49406;51.044;3.766;2023-03-04T05:30:00;102754.85;;;6.13;94.26
63281;BME280;49406;51.044;3.766;2023-03-04T05:32:34;102753.35;;;6.18;94.38
63281;BME280;49406;51.044;3.766;2023-03-04T05:35:09;102751.58;;;6.14;94.73
63281;BME280;49406;51.044;3.766;2023-03-04T05:37:44;102751.00;;;6.10;95.18
63281;BME280;49406;51.044;3.766;2023-03-04T05:40:19;102748.81;;;6.08;95.52
63281;BME280;49406;51.044;3.766;2023-03-04T05:42:53;102749.21;;;6.06;95.71
63281;BME280;49406;51.044;3.766;2023-03-04T05:45:28;102749.36;;;6.02;96.01
63281;BME280;49406;51.044;3.766;2023-03-04T05:48:03;102753.07;;;6.00;96.03
63281;BME280;49406;51.044;3.766;2023-03-04T05:50:38;102754.16;;;5.98;96.18
63281;BME280;49406;51.044;3.766;2023-03-04T05:53:12;102753.34;;;6.08;96.05
63281;BME280;49406;51.044;3.766;2023-03-04T05:55:47;102757.61;;;6.13;95.41
63281;BME280;49406;51.044;3.766;2023-03-04T05:58:22;102757.02;;;6.11;95.17
63281;BME280;49406;51.044;3.766;2023-03-04T06:01:00;102758.11;;;6.07;94.93
63281;BME280;49406;51.044;3.766;2023-03-04T06:03:34;102761.57;;;6.03;94.35
63281;BME280;49406;51.044;3.766;2023-03-04T06:06:09;102762.42;;;6.00;94.17
63281;BME280;49406;51.044;3.766;2023-03-04T06:08:43;102767.20;;;5.98;93.92
63281;BME280;49406;51.044;3.766;2023-03-04T06:11:18;102768.17;;;5.97;93.16
63281;BME280;49406;51.044;3.766;2023-03-04T06:13:52;102768.80;;;6.08;92.16
63281;BME280;49406;51.044;3.766;2023-03-04T06:16:27;102773.15;;;6.05;91.52
63281;BME280;49406;51.044;3.766;2023-03-04T06:19:01;102768.14;;;6.00;91.93
63281;BME280;49406;51.044;3.766;2023-03-04T06:21:36;102766.97;;;5.98;92.20
63281;BME280;49406;51.044;3.766;2023-03-04T06:24:10;102765.77;;;5.95;92.39
63281;BME280;49406;51.044;3.766;2023-03-04T06:26:45;102767.92;;;6.02;92.14
63281;BME280;49406;51.044;3.766;2023-03-04T06:29:19;102768.39;;;6.10;91.81
63281;BME280;49406;51.044;3.766;2023-03-04T06:31:54;102768.36;;;6.06;92.17
63281;BME280;49406;51.044;3.766;2023-03-04T06:34:28;102772.95;;;6.02;92.61
63281;BME280;49406;51.044;3.766;2023-03-04T06:37:03;102774.07;;;6.00;93.02
63281;BME280;49406;51.044;3.766;2023-03-04T06:39:37;102772.73;;;5.98;93.59
63281;BME280;49406;51.044;3.766;2023-03-04T06:42:12;102778.09;;;5.94;94.23
63281;BME280;49406;51.044;3.766;2023-03-04T06:44:48;102778.55;;;6.00;94.32
63281;BME280;49406;51.044;3.766;2023-03-04T06:47:23;102784.25;;;6.08;94.21
63281;BME280;49406;51.044;3.766;2023-03-04T06:49:57;102786.73;;;6.06;94.83
63281;BME280;49406;51.044;3.766;2023-03-04T06:52:32;102786.58;;;5.97;96.04
63281;BME280;49406;51.044;3.766;2023-03-04T06:55:08;102785.48;;;5.93;96.56
63281;BME280;49406;51.044;3.766;2023-03-04T06:57:45;102786.56;;;5.91;97.39
63281;BME280;49406;51.044;3.766;2023-03-04T07:00:20;102785.40;;;5.89;97.94
63281;BME280;49406;51.044;3.766;2023-03-04T07:02:56;102789.14;;;5.91;98.82
63281;BME280;49406;51.044;3.766;2023-03-04T07:05:31;102787.14;;;5.95;98.84
63281;BME280;49406;51.044;3.766;2023-03-04T07:08:05;102787.23;;;5.88;99.89
63281;BME280;49406;51.044;3.766;2023-03-04T07:10:40;102793.70;;;5.80;100.00
63281;BME280;49406;51.044;3.766;2023-03-04T07:13:14;102794.98;;;5.79;100.00
63281;BME280;49406;51.044;3.766;2023-03-04T07:15:49;102800.54;;;5.79;100.00
63281;BME280;49406;51.044;3.766;2023-03-04T07:18:23;102801.73;;;5.84;100.00
63281;BME280;49406;51.044;3.766;2023-03-04T07:20:58;102805.80;;;5.94;100.00
63281;BME280;49406;51.044;3.766;2023-03-04T07:23:33;102811.94;;;5.98;100.00
63281;BME280;49406;51.044;3.766;2023-03-04T07:26:08;102820.18;;;5.96;100.00
63281;BME280;49406;51.044;3.766;2023-03-04T07:28:42;102825.66;;;5.95;100.00
63281;BME280;49406;51.044;3.766;2023-03-04T07:31:22;102831.02;;;5.94;100.00
63281;BME280;49406;51.044;3.766;2023-03-04T07:33:59;102836.99;;;5.93;100.00
63281;BME280;49406;51.044;3.766;2023-03-04T07:36:36;102839.47;;;5.99;100.00
63281;BME280;49406;51.044;3.766;2023-03-04T07:39:11;102838.52;;;6.07;100.00
63281;BME280;49406;51.044;3.766;2023-03-04T07:41:46;102836.12;;;6.07;100.00
63281;BME280;49406;51.044;3.766;2023-03-04T07:44:21;102838.92;;;6.02;100.00
63281;BME280;49406;51.044;3.766;2023-03-04T07:46:55;102843.38;;;5.98;100.00
63281;BME280;49406;51.044;3.766;2023-03-04T07:49:30;102840.39;;;5.94;100.00
63281;BME280;49406;51.044;3.766;2023-03-04T07:52:05;102838.78;;;5.93;100.00
63281;BME280;49406;51.044;3.766;2023-03-04T07:54:40;102837.55;;;5.93;100.00
63281;BME280;49406;51.044;3.766;2023-03-04T07:57:15;102838.98;;;6.03;100.00
63281;BME280;49406;51.044;3.766;2023-03-04T07:59:49;102842.63;;;6.12;100.00
63281;BME280;49406;51.044;3.766;2023-03-04T08:02:24;102847.77;;;6.17;100.00
63281;BME280;49406;51.044;3.766;2023-03-04T08:04:58;102846.77;;;6.14;100.00
63281;BME280;49406;51.044;3.766;2023-03-04T08:07:33;102847.03;;;6.13;100.00
63281;BME280;49406;51.044;3.766;2023-03-04T08:10:10;102849.27;;;6.13;100.00
63281;BME280;49406;51.044;3.766;2023-03-04T08:12:44;102846.69;;;6.13;100.00
63281;BME280;49406;51.044;3.766;2023-03-04T08:15:19;102846.51;;;6.16;100.00
63281;BME280;49406;51.044;3.766;2023-03-04T08:17:53;102849.34;;;6.25;100.00
63281;BME280;49406;51.044;3.766;2023-03-04T08:20:28;102854.05;;;6.35;100.00
63281;BME280;49406;51.044;3.766;2023-03-04T08:23:02;102858.16;;;6.34;100.00
63281;BME280;49406;51.044;3.766;2023-03-04T08:25:39;102855.48;;;6.26;100.00
63281;BME280;49406;51.044;3.766;2023-03-04T08:28:14;102860.11;;;6.20;100.00
63281;BME280;49406;51.044;3.766;2023-03-04T08:33:03;102855.52;;;6.06;100.00
63281;BME280;49406;51.044;3.766;2023-03-04T08:35:39;102858.73;;;6.11;100.00
63281;BME280;49406;51.044;3.766;2023-03-04T08:38:13;102857.84;;;6.07;100.00
63281;BME280;49406;51.044;3.766;2023-03-04T08:40:52;102855.77;;;6.05;100.00
63281;BME280;49406;51.044;3.766;2023-03-04T08:43:27;102854.73;;;5.99;100.00
63281;BME280;49406;51.044;3.766;2023-03-04T08:46:02;102853.63;;;5.95;100.00
63281;BME280;49406;51.044;3.766;2023-03-04T08:48:36;102857.69;;;5.93;100.00
63281;BME280;49406;51.044;3.766;2023-03-04T08:51:13;102855.60;;;5.96;100.00
63281;BME280;49406;51.044;3.766;2023-03-04T08:53:49;102852.14;;;6.05;100.00
63281;BME280;49406;51.044;3.766;2023-03-04T08:56:23;102851.15;;;6.12;100.00
63281;BME280;49406;51.044;3.766;2023-03-04T08:58:58;102850.63;;;6.21;100.00
63281;BME280;49406;51.044;3.766;2023-03-04T09:01:31;102852.48;;;6.25;100.00
63281;BME280;49406;51.044;3.766;2023-03-04T09:04:06;102851.41;;;6.31;100.00
63281;BME280;49406;51.044;3.766;2023-03-04T09:06:41;102849.80;;;6.37;100.00
63281;BME280;49406;51.044;3.766;2023-03-04T09:09:15;102852.38;;;6.42;100.00
63281;BME280;49406;51.044;3.766;2023-03-04T09:11:50;102853.54;;;6.44;100.00
63281;BME280;49406;51.044;3.766;2023-03-04T09:14:24;102855.30;;;6.53;100.00
63281;BME280;49406;51.044;3.766;2023-03-04T09:16:59;102856.80;;;6.68;100.00
63281;BME280;49406;51.044;3.766;2023-03-04T09:19:33;102853.00;;;6.72;100.00
63281;BME280;49406;51.044;3.766;2023-03-04T09:22:08;102855.05;;;6.77;100.00
63281;BME280;49406;51.044;3.766;2023-03-04T09:24:42;102856.32;;;6.81;100.00
63281;BME280;49406;51.044;3.766;2023-03-04T09:27:17;102858.20;;;6.90;100.00
63281;BME280;49406;51.044;3.766;2023-03-04T09:29:51;102852.10;;;6.96;100.00
63281;BME280;49406;51.044;3.766;2023-03-04T09:32:26;102851.66;;;6.94;100.00
63281;BME280;49406;51.044;3.766;2023-03-04T09:35:01;102853.46;;;6.92;100.00
63281;BME280;49406;51.044;3.766;2023-03-04T09:37:35;102857.11;;;6.95;100.00
63281;BME280;49406;51.044;3.766;2023-03-04T09:40:16;102854.94;;;6.93;100.00
63281;BME280;49406;51.044;3.766;2023-03-04T09:42:54;102855.52;;;6.88;100.00
63281;BME280;49406;51.044;3.766;2023-03-04T09:45:35;102855.67;;;6.85;100.00
63281;BME280;49406;51.044;3.766;2023-03-04T09:48:14;102853.77;;;6.88;100.00
63281;BME280;49406;51.044;3.766;2023-03-04T09:51:01;102854.72;;;6.89;100.00
63281;BME280;49406;51.044;3.766;2023-03-04T09:53:48;102855.86;;;6.91;100.00
63281;BME280;49406;51.044;3.766;2023-03-04T09:56:25;102849.57;;;7.01;100.00
63281;BME280;49406;51.044;3.766;2023-03-04T09:59:08;102843.20;;;6.95;100.00
63281;BME280;49406;51.044;3.766;2023-03-04T10:01:49;102846.04;;;6.90;100.00
63281;BME280;49406;51.044;3.766;2023-03-04T10:04:31;102849.98;;;6.86;100.00
63281;BME280;49406;51.044;3.766;2023-03-04T10:07:11;102844.30;;;6.84;100.00
63281;BME280;49406;51.044;3.766;2023-03-04T10:09:50;102849.48;;;6.86;100.00
63281;BME280;49406;51.044;3.766;2023-03-04T10:12:29;102843.33;;;6.98;100.00
63281;BME280;49406;51.044;3.766;2023-03-04T10:15:15;102843.28;;;7.06;100.00
63281;BME280;49406;51.044;3.766;2023-03-04T10:17:49;102848.20;;;7.07;100.00
63281;BME280;49406;51.044;3.766;2023-03-04T10:20:29;102849.81;;;7.08;100.00
63281;BME280;49406;51.044;3.766;2023-03-04T10:23:14;102846.41;;;7.06;100.00
63281;BME280;49406;51.044;3.766;2023-03-04T10:25:51;102846.29;;;7.04;100.00
63281;BME280;49406;51.044;3.766;2023-03-04T10:28:28;102849.63;;;7.14;100.00
63281;BME280;49406;51.044;3.766;2023-03-04T10:31:11;102850.02;;;7.25;100.00
63281;BME280;49406;51.044;3.766;2023-03-04T10:33:49;102844.36;;;7.30;100.00
63281;BME280;49406;51.044;3.766;2023-03-04T10:36:43;102845.71;;;7.32;100.00
63281;BME280;49406;51.044;3.766;2023-03-04T10:39:24;102836.88;;;7.39;100.00
63281;BME280;49406;51.044;3.766;2023-03-04T10:42:01;102833.04;;;7.46;100.00
63281;BME280;49406;51.044;3.766;2023-03-04T10:44:35;102831.02;;;7.67;100.00
63281;BME280;49406;51.044;3.766;2023-03-04T10:47:14;102832.89;;;8.04;99.86
63281;BME280;49406;51.044;3.766;2023-03-04T10:49:52;102834.77;;;8.34;97.43
63281;BME280;49406;51.044;3.766;2023-03-04T10:52:32;102831.88;;;8.50;96.97
63281;BME280;49406;51.044;3.766;2023-03-04T10:55:16;102828.88;;;8.53;95.91
63281;BME280;49406;51.044;3.766;2023-03-04T10:57:53;102828.09;;;8.43;95.62
63281;BME280;49406;51.044;3.766;2023-03-04T11:00:31;102830.75;;;8.34;96.12
63281;BME280;49406;51.044;3.766;2023-03-04T11:03:23;102828.13;;;8.24;95.63
63281;BME280;49406;51.044;3.766;2023-03-04T11:06:19;102826.41;;;8.17;96.43
63281;BME280;49406;51.044;3.766;2023-03-04T11:08:56;102823.27;;;8.10;96.47
63281;BME280;49406;51.044;3.766;2023-03-04T11:11:37;102825.09;;;8.11;97.71
63281;BME280;49406;51.044;3.766;2023-03-04T11:14:20;102823.31;;;8.10;97.83
63281;BME280;49406;51.044;3.766;2023-03-04T11:16:58;102816.80;;;8.03;97.59
63281;BME280;49406;51.044;3.766;2023-03-04T11:19:38;102815.54;;;7.98;98.45
63281;BME280;49406;51.044;3.766;2023-03-04T11:22:15;102815.74;;;8.09;98.77
63281;BME280;49406;51.044;3.766;2023-03-04T11:24:56;102809.66;;;8.34;97.79
63281;BME280;49406;51.044;3.766;2023-03-04T11:27:49;102806.35;;;8.63;97.06
63281;BME280;49406;51.044;3.766;2023-03-04T11:30:33;102794.15;;;8.89;94.60
63281;BME280;49406;51.044;3.766;2023-03-04T11:33:24;102789.54;;;9.10;92.41
63281;BME280;49406;51.044;3.766;2023-03-04T11:36:08;102784.52;;;9.22;93.18
63281;BME280;49406;51.044;3.766;2023-03-04T11:38:50;102783.48;;;9.26;91.24
63281;BME280;49406;51.044;3.766;2023-03-04T11:41:29;102779.80;;;9.18;89.52
63281;BME280;49406;51.044;3.766;2023-03-04T11:44:06;102780.00;;;9.19;90.47
63281;BME280;49406;51.044;3.766;2023-03-04T11:47:08;102778.34;;;9.17;87.52
63281;BME280;49406;51.044;3.766;2023-03-04T11:50:16;102771.70;;;9.05;87.73
63281;BME280;49406;51.044;3.766;2023-03-04T11:53:18;102766.48;;;8.98;86.92
63281;BME280;49406;51.044;3.766;2023-03-04T11:56:02;102762.48;;;8.87;87.17
63281;BME280;49406;51.044;3.766;2023-03-04T11:59:16;102759.65;;;8.78;87.86
63281;BME280;49406;51.044;3.766;2023-03-04T12:02:11;102757.23;;;8.64;88.77
63281;BME280;49406;51.044;3.766;2023-03-04T12:05:18;102754.20;;;8.58;88.75
63281;BME280;49406;51.044;3.766;2023-03-04T12:08:24;102754.13;;;8.53;89.39
63281;BME280;49406;51.044;3.766;2023-03-04T12:11:06;102749.27;;;8.50;89.54
63281;BME280;49406;51.044;3.766;2023-03-04T12:14:14;102747.71;;;8.43;89.69
63281;BME280;49406;51.044;3.766;2023-03-04T12:17:07;102747.50;;;8.39;90.69
63281;BME280;49406;51.044;3.766;2023-03-04T12:20:01;102745.22;;;8.38;91.12
63281;BME280;49406;51.044;3.766;2023-03-04T12:22:44;102739.85;;;8.35;91.14
63281;BME280;49406;51.044;3.766;2023-03-04T12:30:34;102735.14;;;8.32;91.25
63281;BME280;49406;51.044;3.766;2023-03-04T13:50:22;102658.70;;;8.04;99.88
63281;BME280;49406;51.044;3.766;2023-03-04T13:53:01;102652.75;;;8.33;98.22
63281;BME280;49406;51.044;3.766;2023-03-04T13:56:11;102651.55;;;8.52;97.05
63281;BME280;49406;51.044;3.766;2023-03-04T13:58:49;102654.34;;;8.63;96.57
63281;BME280;49406;51.044;3.766;2023-03-04T14:01:28;102653.91;;;8.65;97.55
63281;BME280;49406;51.044;3.766;2023-03-04T14:04:15;102654.41;;;8.61;98.43
63281;BME280;49406;51.044;3.766;2023-03-04T14:06:50;102650.83;;;8.47;99.52
63281;BME280;49406;51.044;3.766;2023-03-04T14:09:27;102652.03;;;8.55;99.29
63281;BME280;49406;51.044;3.766;2023-03-04T14:12:11;102647.95;;;8.57;99.70
63281;BME280;49406;51.044;3.766;2023-03-04T14:14:49;102644.36;;;8.58;99.43
63281;BME280;49406;51.044;3.766;2023-03-04T14:17:28;102646.45;;;8.58;99.49
63281;BME280;49406;51.044;3.766;2023-03-04T14:20:16;102642.10;;;8.55;99.29
63281;BME280;49406;51.044;3.766;2023-03-04T14:22:54;102637.88;;;8.61;99.62
63281;BME280;49406;51.044;3.766;2023-03-04T14:25:30;102635.97;;;8.66;99.66
63281;BME280;49406;51.044;3.766;2023-03-04T14:28:11;102634.81;;;8.79;98.80
63281;BME280;49406;51.044;3.766;2023-03-04T14:30:52;102633.24;;;8.99;98.32
63281;BME280;49406;51.044;3.766;2023-03-04T14:36:27;102622.08;;;9.15;96.71
63281;BME280;49406;51.044;3.766;2023-03-04T14:39:05;102623.61;;;9.19;96.44
63281;BME280;49406;51.044;3.766;2023-03-04T14:41:42;102621.91;;;9.20;96.60
63281;BME280;49406;51.044;3.766;2023-03-04T14:44:27;102621.59;;;9.21;96.14
63281;BME280;49406;51.044;3.766;2023-03-04T14:47:12;102622.29;;;9.20;96.16
63281;BME280;49406;51.044;3.766;2023-03-04T14:49:49;102616.60;;;9.18;96.01
63281;BME280;49406;51.044;3.766;2023-03-04T14:52:36;102612.64;;;9.07;96.58
63281;BME280;49406;51.044;3.766;2023-03-04T14:55:20;102609.48;;;8.90;97.65
63281;BME280;49406;51.044;3.766;2023-03-04T14:58:07;102603.14;;;8.77;98.44
63281;BME280;49406;51.044;3.766;2023-03-04T15:00:42;102600.11;;;8.67;99.24
63281;BME280;49406;51.044;3.766;2023-03-04T15:03:23;102596.67;;;8.72;99.17
63281;BME280;49406;51.044;3.766;2023-03-04T15:06:07;102597.11;;;8.71;99.61
63281;BME280;49406;51.044;3.766;2023-03-04T15:08:55;102599.98;;;8.64;100.00
63281;BME280;49406;51.044;3.766;2023-03-04T15:11:43;102603.78;;;8.52;100.00
63281;BME280;49406;51.044;3.766;2023-03-04T15:14:41;102602.61;;;8.34;100.00
63281;BME280;49406;51.044;3.766;2023-03-04T15:17:32;102602.72;;;8.29;100.00
63281;BME280;49406;51.044;3.766;2023-03-04T15:20:32;102592.99;;;8.33;100.00